createdAt,value
2017-11-23T00:01:17.998Z,99.90
2017-11-23T00:03:46.494Z,99.90
2017-11-23T00:06:14.856Z,99.90
2017-11-23T00:08:43.991Z,99.90
2017-11-23T00:11:13.247Z,99.90
2017-11-23T00:13:41.620Z,99.90
2017-11-23T00:16:09.991Z,99.90
2017-11-23T00:18:38.400Z,99.90
2017-11-23T00:21:06.777Z,99.90
2017-11-23T00:23:35.157Z,99.90
2017-11-23T00:26:03.918Z,99.90
2017-11-23T00:28:33.043Z,99.90
2017-11-23T00:31:01.421Z,99.90
2017-11-23T00:33:30.273Z,99.90
2017-11-23T00:35:58.645Z,99.90
2017-11-23T00:38:27.016Z,99.90
2017-11-23T00:40:55.511Z,99.90
2017-11-23T00:43:23.889Z,99.90
2017-11-23T00:45:52.275Z,99.90
2017-11-23T00:48:20.674Z,99.90
2017-11-23T00:50:49.047Z,99.90
2017-11-23T00:53:17.435Z,99.90
2017-11-23T00:55:45.988Z,99.90
2017-11-23T00:58:14.347Z,99.90
2017-11-23T01:00:42.752Z,99.90
2017-11-23T01:03:11.544Z,99.90
2017-11-23T01:05:39.908Z,99.90
2017-11-23T01:08:08.288Z,99.90
2017-11-23T01:10:36.968Z,99.90
2017-11-23T01:13:05.328Z,99.90
2017-11-23T01:15:33.708Z,99.90
2017-11-23T01:18:02.309Z,99.90
2017-11-23T01:20:30.686Z,99.90
2017-11-23T01:22:59.066Z,99.90
2017-11-23T01:25:27.858Z,99.90
2017-11-23T01:27:56.226Z,99.90
2017-11-23T01:30:24.593Z,99.90
2017-11-23T01:32:52.990Z,99.90
2017-11-23T01:35:21.363Z,99.90
2017-11-23T01:37:49.736Z,99.90
2017-11-23T01:40:18.242Z,99.90
2017-11-23T01:42:46.638Z,99.90
2017-11-23T01:45:15.027Z,99.90
2017-11-23T01:47:43.434Z,99.90
2017-11-23T01:50:12.563Z,99.90
2017-11-23T01:52:40.925Z,99.90
2017-11-23T01:55:09.825Z,99.90
2017-11-23T01:57:38.199Z,99.90
2017-11-23T02:00:06.582Z,99.90
2017-11-23T02:02:35.171Z,99.90
2017-11-23T02:05:03.543Z,99.90
2017-11-23T02:07:32.242Z,99.90
2017-11-23T02:10:00.764Z,99.90
2017-11-23T02:12:29.140Z,99.90
2017-11-23T02:14:57.514Z,99.90
2017-11-23T02:17:26.270Z,99.90
2017-11-23T02:19:55.440Z,99.90
2017-11-23T02:22:23.832Z,99.90
2017-11-23T02:24:52.475Z,99.90
2017-11-23T02:27:21.656Z,99.90
2017-11-23T02:29:50.056Z,99.90
2017-11-23T02:32:19.335Z,99.90
2017-11-23T02:34:47.783Z,99.90
2017-11-23T02:37:16.180Z,99.90
2017-11-23T02:39:44.939Z,99.90
2017-11-23T02:42:13.314Z,99.90
2017-11-23T02:44:41.693Z,99.90
2017-11-23T02:47:10.376Z,99.90
2017-11-23T02:49:38.755Z,99.90
2017-11-23T02:52:07.168Z,99.90
2017-11-23T02:54:35.629Z,99.90
2017-11-23T02:57:04.780Z,99.90
2017-11-23T02:59:33.156Z,99.90
2017-11-23T03:02:02.603Z,99.90
2017-11-23T03:04:31.002Z,99.90
2017-11-23T03:06:59.375Z,99.90
2017-11-23T03:09:28.153Z,99.90
2017-11-23T03:11:56.551Z,99.90
2017-11-23T03:14:24.918Z,99.90
2017-11-23T03:16:53.722Z,99.90
2017-11-23T03:19:22.181Z,99.90
2017-11-23T03:21:50.562Z,99.90
2017-11-23T03:24:18.997Z,99.90
2017-11-23T03:26:48.136Z,99.90
2017-11-23T03:29:16.498Z,99.90
2017-11-23T03:31:44.992Z,99.90
2017-11-23T03:34:13.365Z,99.90
2017-11-23T03:36:41.759Z,99.90
2017-11-23T03:39:10.258Z,99.90
2017-11-23T03:41:38.638Z,99.90
2017-11-23T03:44:07.014Z,99.90
2017-11-23T03:46:35.777Z,99.90
2017-11-23T03:49:04.154Z,99.90
2017-11-23T03:51:32.591Z,99.90
2017-11-23T03:54:01.937Z,99.90
2017-11-23T03:56:30.314Z,99.90
2017-11-23T03:58:58.696Z,99.90
2017-11-23T04:01:27.378Z,99.90
2017-11-23T04:03:55.751Z,99.90
2017-11-23T04:06:24.120Z,99.90
2017-11-23T04:08:52.620Z,99.90
2017-11-23T04:11:20.998Z,99.90
2017-11-23T04:13:49.371Z,99.90
2017-11-23T04:16:17.935Z,99.90
2017-11-23T04:18:46.309Z,99.90
2017-11-23T04:21:14.688Z,99.90
2017-11-23T04:23:43.295Z,99.90
2017-11-23T04:26:11.681Z,99.90
2017-11-23T04:28:40.080Z,99.90
2017-11-23T04:31:08.731Z,99.90
2017-11-23T04:33:37.105Z,99.90
2017-11-23T04:36:05.476Z,99.90
2017-11-23T04:38:33.995Z,99.90
2017-11-23T04:41:02.416Z,99.90
2017-11-23T04:43:30.792Z,99.90
2017-11-23T04:45:59.202Z,99.90
2017-11-23T04:48:27.584Z,99.90
2017-11-23T04:50:55.964Z,99.90
2017-11-23T04:53:24.391Z,99.90
2017-11-23T04:55:52.827Z,99.90
2017-11-23T04:58:21.197Z,99.90
2017-11-23T05:00:49.831Z,99.90
2017-11-23T05:03:18.983Z,99.90
2017-11-23T05:05:47.358Z,99.90
2017-11-23T05:08:15.765Z,99.90
2017-11-23T05:10:44.152Z,99.90
2017-11-23T05:13:12.532Z,99.90
2017-11-23T05:15:41.083Z,99.90
2017-11-23T05:18:09.462Z,99.90
2017-11-23T05:20:37.843Z,99.90
2017-11-23T05:23:06.336Z,99.90
2017-11-23T05:25:34.712Z,99.90
2017-11-23T05:28:03.075Z,99.90
2017-11-23T05:30:31.758Z,99.90
2017-11-23T05:33:00.135Z,99.90
2017-11-23T05:35:28.507Z,99.90
2017-11-23T05:37:57.233Z,99.90
2017-11-23T05:40:25.625Z,99.90
2017-11-23T05:42:53.992Z,99.90
2017-11-23T05:45:22.691Z,99.90
2017-11-23T05:47:51.069Z,99.90
2017-11-23T05:50:19.442Z,99.90
2017-11-23T05:52:48.077Z,99.90
2017-11-23T05:55:16.463Z,99.90
2017-11-23T05:57:44.838Z,99.90
2017-11-23T06:00:13.355Z,99.90
2017-11-23T06:02:42.524Z,99.90
2017-11-23T06:05:10.912Z,99.90
2017-11-23T06:07:39.407Z,99.90
2017-11-23T06:10:07.780Z,99.90
2017-11-23T06:12:36.151Z,99.90
2017-11-23T06:15:04.700Z,99.90
2017-11-23T06:17:33.094Z,99.90
2017-11-23T06:20:01.465Z,99.90
2017-11-23T06:22:29.984Z,99.90
2017-11-23T06:24:58.361Z,99.90
2017-11-23T06:27:26.762Z,99.90
2017-11-23T06:29:55.971Z,99.90
2017-11-23T06:32:25.119Z,99.90
2017-11-23T06:34:53.499Z,99.90
2017-11-23T06:37:22.135Z,99.90
2017-11-23T06:39:50.505Z,99.90
2017-11-23T06:42:19.644Z,99.90
2017-11-23T06:44:48.229Z,99.90
2017-11-23T06:47:16.591Z,99.90
2017-11-23T06:49:44.962Z,99.90
2017-11-23T06:52:13.772Z,99.90
2017-11-23T06:54:42.148Z,99.90
2017-11-23T06:57:10.510Z,99.90
2017-11-23T06:59:38.999Z,99.90
2017-11-23T07:02:07.378Z,99.90
2017-11-23T07:04:35.753Z,99.90
2017-11-23T07:07:04.151Z,99.90
2017-11-23T07:09:32.552Z,99.90
2017-11-23T07:12:00.936Z,99.90
2017-11-23T07:14:29.496Z,99.90
2017-11-23T07:16:57.877Z,99.90
2017-11-23T07:19:26.247Z,99.50
2017-11-23T07:21:54.821Z,98.00
2017-11-23T07:24:23.187Z,97.20
2017-11-23T07:26:51.552Z,96.50
2017-11-23T07:29:19.953Z,95.60
2017-11-23T07:31:48.352Z,94.90
2017-11-23T07:34:16.731Z,94.70
2017-11-23T07:36:45.599Z,94.80
2017-11-23T07:39:13.971Z,93.10
2017-11-23T07:41:42.372Z,90.80
2017-11-23T07:44:11.047Z,90.10
2017-11-23T07:46:39.405Z,90.30
2017-11-23T07:49:07.789Z,85.20
2017-11-23T07:51:36.295Z,83.80
2017-11-23T07:54:04.668Z,80.80
2017-11-23T07:56:33.043Z,78.60
2017-11-23T07:59:01.625Z,81.00
2017-11-23T08:01:29.987Z,82.80
2017-11-23T08:03:58.367Z,80.40
2017-11-23T08:06:26.786Z,79.30
2017-11-23T08:08:55.166Z,80.50
2017-11-23T08:11:23.535Z,78.90
2017-11-23T08:13:52.139Z,77.10
2017-11-23T08:16:20.525Z,81.40
2017-11-23T08:18:49.679Z,77.80
2017-11-23T08:21:18.112Z,77.60
2017-11-23T08:23:47.254Z,72.90
2017-11-23T08:26:15.649Z,72.90
2017-11-23T08:28:44.068Z,73.20
2017-11-23T08:31:13.205Z,71.90
2017-11-23T08:33:41.595Z,71.70
2017-11-23T08:36:10.263Z,73.00
2017-11-23T08:38:38.634Z,66.60
2017-11-23T08:41:07.016Z,63.70
2017-11-23T08:43:35.514Z,61.70
2017-11-23T08:46:03.899Z,58.10
2017-11-23T08:48:32.279Z,56.80
2017-11-23T08:51:01.052Z,56.50
2017-11-23T08:53:31.258Z,55.00
2017-11-23T08:55:59.652Z,52.10
2017-11-23T08:58:28.084Z,50.10
2017-11-23T09:00:57.231Z,49.50
2017-11-23T09:03:25.624Z,49.50
2017-11-23T09:05:54.146Z,50.80
2017-11-23T09:08:22.529Z,50.70
2017-11-23T09:10:51.681Z,50.30
2017-11-23T09:13:20.350Z,50.20
2017-11-23T09:15:48.899Z,48.90
2017-11-23T09:18:17.318Z,48.60
2017-11-23T09:20:46.512Z,48.90
2017-11-23T09:23:14.893Z,46.60
2017-11-23T09:25:43.267Z,44.50
2017-11-23T09:28:11.768Z,44.60
2017-11-23T09:30:40.152Z,42.80
2017-11-23T09:33:08.540Z,41.70
2017-11-23T09:35:37.100Z,41.70
2017-11-23T09:38:05.483Z,41.10
2017-11-23T09:40:33.856Z,40.20
2017-11-23T09:43:02.474Z,39.90
2017-11-23T09:45:31.622Z,41.00
2017-11-23T09:48:00.008Z,40.30
2017-11-23T09:50:28.453Z,40.90
2017-11-23T09:52:56.867Z,41.50
2017-11-23T09:55:25.241Z,40.60
2017-11-23T09:57:53.675Z,41.10
2017-11-23T10:00:22.818Z,41.30
2017-11-23T10:02:51.204Z,41.30
2017-11-23T10:05:19.724Z,41.40
2017-11-23T10:07:48.871Z,41.00
2017-11-23T10:10:17.259Z,41.00
2017-11-23T10:12:45.731Z,41.50
2017-11-23T10:15:14.106Z,42.80
2017-11-23T10:17:42.496Z,43.10
2017-11-23T10:20:11.005Z,43.90
2017-11-23T10:22:39.393Z,42.70
2017-11-23T10:25:07.772Z,42.10
2017-11-23T10:27:36.406Z,40.40
2017-11-23T10:30:04.806Z,40.40
2017-11-23T10:32:33.197Z,40.70
2017-11-23T10:35:01.884Z,40.70
2017-11-23T10:37:35.736Z,41.30
2017-11-23T10:40:04.455Z,43.20
2017-11-23T10:42:32.847Z,44.90
2017-11-23T10:45:01.220Z,45.70
2017-11-23T10:47:29.631Z,46.00
2017-11-23T10:49:58.772Z,46.80
2017-11-23T10:52:27.158Z,46.70
2017-11-23T10:54:55.844Z,47.40
2017-11-23T10:57:24.215Z,47.40
2017-11-23T10:59:52.586Z,47.60
2017-11-23T11:02:21.144Z,46.30
2017-11-23T11:04:50.280Z,48.10
2017-11-23T11:07:18.672Z,48.00
2017-11-23T11:09:47.190Z,47.90
2017-11-23T11:12:16.344Z,47.50
2017-11-23T11:14:44.718Z,47.50
2017-11-23T11:17:13.161Z,48.60
2017-11-23T11:19:41.549Z,50.00
2017-11-23T11:22:09.919Z,51.00
2017-11-23T11:24:38.422Z,50.70
2017-11-23T11:27:06.800Z,50.90
2017-11-23T11:29:35.181Z,50.90
2017-11-23T11:32:03.868Z,51.50
2017-11-23T11:34:32.245Z,52.40
2017-11-23T11:37:00.628Z,52.90
2017-11-23T11:39:29.123Z,52.90
2017-11-23T11:41:57.501Z,53.20
2017-11-23T11:44:25.908Z,53.50
2017-11-23T11:46:55.115Z,53.40
2017-11-23T11:49:24.258Z,52.50
2017-11-23T11:51:52.647Z,52.50
2017-11-23T11:54:22.147Z,49.20
2017-11-23T11:56:50.526Z,49.20
2017-11-23T11:59:18.900Z,48.60
2017-11-23T12:01:47.587Z,48.00
2017-11-23T12:04:15.994Z,47.00
2017-11-23T12:06:44.391Z,45.40
2017-11-23T12:09:12.821Z,45.20
2017-11-23T12:11:41.971Z,43.50
2017-11-23T12:14:27.292Z,42.00
2017-11-23T12:16:57.433Z,41.90
2017-11-23T12:19:43.917Z,42.20
2017-11-23T12:22:30.039Z,41.80
2017-11-23T12:25:03.240Z,42.90
2017-11-23T12:27:49.611Z,42.60
2017-11-23T12:30:18.116Z,41.80
2017-11-23T12:32:46.487Z,42.20
2017-11-23T12:35:14.865Z,41.70
2017-11-23T12:37:43.464Z,40.80
2017-11-23T12:40:11.860Z,40.30
2017-11-23T12:42:41.065Z,40.00
2017-11-23T12:45:10.505Z,39.80
2017-11-23T12:47:38.888Z,39.80
2017-11-23T12:50:07.291Z,40.40
2017-11-23T12:52:35.940Z,43.60
2017-11-23T12:55:04.315Z,43.60
2017-11-23T12:57:32.688Z,44.10
2017-11-23T13:00:01.216Z,44.60
2017-11-23T13:02:29.591Z,44.30
2017-11-23T13:04:57.965Z,43.30
2017-11-23T13:07:26.651Z,43.50
2017-11-23T13:09:55.027Z,44.10
2017-11-23T13:12:23.408Z,44.30
2017-11-23T13:14:52.080Z,44.80
2017-11-23T13:17:21.229Z,46.10
2017-11-23T13:19:50.390Z,46.40
2017-11-23T13:22:18.808Z,46.30
2017-11-23T13:24:47.293Z,45.90
2017-11-23T13:27:15.716Z,46.10
2017-11-23T13:29:44.396Z,46.60
2017-11-23T13:32:12.787Z,47.10
2017-11-23T13:34:41.171Z,47.80
2017-11-23T13:37:09.824Z,48.60
2017-11-23T13:39:38.236Z,50.20
2017-11-23T13:42:06.619Z,51.70
2017-11-23T13:44:35.271Z,52.50
2017-11-23T13:47:03.653Z,53.30
2017-11-23T13:49:32.029Z,54.20
2017-11-23T13:52:00.547Z,54.60
2017-11-23T13:54:28.935Z,57.00
2017-11-23T13:56:57.302Z,56.40
2017-11-23T13:59:25.863Z,56.80
2017-11-23T14:01:54.254Z,56.70
2017-11-23T14:04:22.653Z,55.80
2017-11-23T14:06:51.403Z,56.20
2017-11-23T14:09:19.791Z,55.60
2017-11-23T14:11:48.171Z,55.30
2017-11-23T14:14:17.036Z,56.10
2017-11-23T14:16:45.425Z,56.00
2017-11-23T14:19:13.795Z,56.70
2017-11-23T14:21:42.340Z,57.30
2017-11-23T14:24:11.546Z,58.80
2017-11-23T14:26:39.965Z,58.80
2017-11-23T14:29:08.381Z,59.30
2017-11-23T14:31:37.541Z,60.40
2017-11-23T14:34:05.973Z,60.50
2017-11-23T14:36:35.229Z,60.70
2017-11-23T14:39:04.474Z,61.40
2017-11-23T14:41:33.783Z,61.60
2017-11-23T14:44:02.503Z,61.50
2017-11-23T14:46:30.880Z,62.30
2017-11-23T14:48:59.269Z,62.90
2017-11-23T14:51:27.915Z,63.60
2017-11-23T14:53:56.286Z,64.10
2017-11-23T14:56:24.666Z,65.10
2017-11-23T14:58:53.376Z,66.40
2017-11-23T15:01:21.756Z,68.10
2017-11-23T15:03:50.424Z,68.00
2017-11-23T15:06:19.252Z,68.30
2017-11-23T15:08:47.682Z,69.00
2017-11-23T15:11:16.065Z,69.90
2017-11-23T15:13:44.947Z,68.70
2017-11-23T15:16:14.104Z,69.40
2017-11-23T15:18:42.529Z,69.40
2017-11-23T15:21:11.163Z,69.70
2017-11-23T15:23:39.547Z,71.40
2017-11-23T15:26:07.925Z,71.60
2017-11-23T15:28:36.369Z,72.10
2017-11-23T15:31:04.966Z,72.50
2017-11-23T15:33:33.352Z,72.50
2017-11-23T15:36:01.863Z,71.10
2017-11-23T15:38:30.253Z,69.80
2017-11-23T15:40:59.443Z,68.80
2017-11-23T15:43:27.965Z,68.70
2017-11-23T15:45:56.330Z,70.20
2017-11-23T15:48:24.719Z,71.30
2017-11-23T15:50:53.233Z,71.20
2017-11-23T15:53:21.620Z,71.50
2017-11-23T15:55:50.003Z,70.70
2017-11-23T15:58:18.659Z,71.20
2017-11-23T16:00:47.028Z,71.60
2017-11-23T16:03:15.404Z,69.50
2017-11-23T16:05:43.919Z,68.90
2017-11-23T16:08:12.304Z,69.40
2017-11-23T16:10:40.675Z,68.90
2017-11-23T16:13:09.351Z,69.60
2017-11-23T16:15:37.735Z,69.40
2017-11-23T16:18:06.129Z,68.20
2017-11-23T16:20:34.564Z,68.10
2017-11-23T16:23:02.946Z,67.70
2017-11-23T16:25:31.325Z,67.90
2017-11-23T16:27:59.892Z,67.60
2017-11-23T16:30:28.276Z,67.40
2017-11-23T16:32:56.782Z,67.40
2017-11-23T16:35:25.461Z,67.40
2017-11-23T16:37:55.661Z,67.20
2017-11-23T16:43:30.142Z,67.70
2017-11-23T16:46:04.852Z,67.80
2017-11-23T16:48:38.935Z,68.30
2017-11-23T16:51:13.107Z,68.60
2017-11-23T16:53:47.793Z,69.60
2017-11-23T16:59:35.073Z,69.40
2017-11-23T17:02:08.981Z,69.70
2017-11-23T17:04:38.170Z,69.90
2017-11-23T17:10:16.382Z,70.70
2017-11-23T17:15:48.204Z,71.60
2017-11-23T17:18:18.423Z,72.70
2017-11-23T17:20:46.801Z,71.90
2017-11-23T17:23:15.193Z,72.00
2017-11-23T17:25:44.658Z,73.50
2017-11-23T17:28:13.050Z,73.50
2017-11-23T17:30:41.462Z,73.90
2017-11-23T17:33:10.088Z,74.50
2017-11-23T17:35:38.575Z,75.00
2017-11-23T17:38:06.966Z,75.90
2017-11-23T17:40:35.837Z,76.80
2017-11-23T17:43:04.244Z,77.40
2017-11-23T17:45:32.629Z,78.10
2017-11-23T17:48:01.276Z,78.30
2017-11-23T17:50:29.658Z,78.00
2017-11-23T17:52:58.031Z,78.30
2017-11-23T17:55:26.756Z,78.70
2017-11-23T17:57:55.140Z,79.00
2017-11-23T18:00:23.650Z,79.40
2017-11-23T18:02:52.302Z,80.00
2017-11-23T18:05:20.721Z,80.10
2017-11-23T18:07:49.125Z,80.50
2017-11-23T18:10:17.777Z,80.90
2017-11-23T18:12:46.563Z,81.10
2017-11-23T18:15:15.364Z,81.20
2017-11-23T18:17:45.519Z,81.30
2017-11-23T18:20:14.329Z,81.50
2017-11-23T18:22:43.133Z,82.20
2017-11-23T18:25:12.136Z,81.40
2017-11-23T18:27:40.929Z,82.00
2017-11-23T18:30:09.735Z,82.60
2017-11-23T18:32:38.532Z,82.90
2017-11-23T18:35:07.033Z,83.40
2017-11-23T18:37:35.764Z,83.40
2017-11-23T18:40:04.646Z,83.80
2017-11-23T18:42:33.310Z,83.90
2017-11-23T18:45:02.687Z,85.40
2017-11-23T18:47:31.980Z,85.30
2017-11-23T18:50:00.636Z,85.20
2017-11-23T18:52:29.552Z,86.60
2017-11-23T18:54:58.731Z,87.10
2017-11-23T18:57:27.292Z,87.20
2017-11-23T18:59:55.902Z,86.90
2017-11-23T19:02:24.566Z,86.90
2017-11-23T19:04:53.331Z,87.30
2017-11-23T19:07:22.905Z,87.60
2017-11-23T19:09:51.531Z,88.00
2017-11-23T19:12:21.103Z,89.40
2017-11-23T19:14:49.795Z,89.30
2017-11-23T19:17:18.612Z,89.30
2017-11-23T19:19:47.430Z,89.90
2017-11-23T19:22:16.921Z,90.00
2017-11-23T19:24:45.785Z,90.10
2017-11-23T19:27:14.422Z,91.00
2017-11-23T19:29:43.531Z,90.50
2017-11-23T19:32:12.203Z,90.00
2017-11-23T19:34:40.790Z,89.20
2017-11-23T19:37:09.356Z,89.50
2017-11-23T19:39:38.167Z,88.90
2017-11-23T19:42:06.722Z,89.10
2017-11-23T19:44:36.106Z,88.30
2017-11-23T19:47:06.433Z,88.30
2017-11-23T19:49:35.338Z,87.90
2017-11-23T19:52:04.223Z,87.40
2017-11-23T19:54:33.226Z,87.30
2017-11-23T19:57:01.999Z,87.20
2017-11-23T19:59:31.660Z,86.90
2017-11-23T20:02:01.205Z,86.80
2017-11-23T20:04:29.947Z,86.70
2017-11-23T20:06:59.586Z,86.40
2017-11-23T20:09:28.180Z,86.40
2017-11-23T20:11:56.893Z,86.40
2017-11-23T20:14:25.681Z,86.40
2017-11-23T20:16:54.537Z,86.60
2017-11-23T20:19:23.206Z,86.90
2017-11-23T20:21:51.736Z,87.20
2017-11-23T20:24:20.873Z,87.40
2017-11-23T20:26:50.278Z,87.20
2017-11-23T20:29:19.589Z,87.00
2017-11-23T20:31:48.668Z,87.00
2017-11-23T20:34:17.867Z,88.20
2017-11-23T20:36:46.533Z,88.20
2017-11-23T20:39:15.443Z,88.80
2017-11-23T20:41:44.738Z,89.80
2017-11-23T20:44:13.212Z,89.80
2017-11-23T20:46:42.048Z,90.10
2017-11-23T20:49:10.596Z,90.20
2017-11-23T20:51:39.041Z,90.40
2017-11-23T20:54:07.839Z,90.60
2017-11-23T20:56:36.222Z,90.70
2017-11-23T20:59:04.593Z,90.80
2017-11-23T21:01:33.078Z,90.80
2017-11-23T21:04:01.569Z,90.90
2017-11-23T21:06:30.087Z,91.00
2017-11-23T21:08:59.185Z,91.20
2017-11-23T21:11:27.586Z,91.30
2017-11-23T21:13:56.715Z,91.40
2017-11-23T21:16:25.198Z,91.40
2017-11-23T21:18:53.649Z,91.80
2017-11-23T21:21:22.094Z,91.40
2017-11-23T21:23:50.730Z,91.30
2017-11-23T21:26:19.480Z,91.30
2017-11-23T21:28:48.174Z,91.40
2017-11-23T21:31:17.117Z,91.20
2017-11-23T21:33:45.695Z,91.10
2017-11-23T21:36:14.348Z,91.10
2017-11-23T21:38:43.358Z,91.20
2017-11-23T21:41:11.897Z,91.10
2017-11-23T21:43:41.468Z,91.20
2017-11-23T21:46:10.236Z,91.20
2017-11-23T21:48:38.820Z,91.40
2017-11-23T21:51:07.227Z,91.50
2017-11-23T21:53:35.665Z,91.80
2017-11-23T21:56:05.132Z,91.90
2017-11-23T21:58:33.833Z,92.00
2017-11-23T22:01:02.553Z,91.90
2017-11-23T22:03:31.329Z,92.00
2017-11-23T22:05:59.914Z,92.00
2017-11-23T22:08:28.578Z,92.00
2017-11-23T22:10:57.128Z,92.00
2017-11-23T22:13:26.364Z,92.10
2017-11-23T22:15:54.989Z,92.10
2017-11-23T22:18:23.615Z,92.00
2017-11-23T22:20:52.766Z,92.20
2017-11-23T22:23:21.270Z,92.10
2017-11-23T22:25:49.654Z,92.20
2017-11-23T22:28:18.018Z,92.20
2017-11-23T22:30:46.949Z,92.20
2017-11-23T22:33:16.104Z,92.30
2017-11-23T22:35:44.507Z,92.30
2017-11-23T22:38:13.302Z,92.30
2017-11-23T22:40:41.738Z,92.30
2017-11-23T22:43:10.100Z,92.40
2017-11-23T22:45:38.515Z,92.40
2017-11-23T22:48:06.875Z,92.40
2017-11-23T22:50:35.242Z,92.50
2017-11-23T22:53:04.030Z,92.60
2017-11-23T22:55:32.406Z,92.80
2017-11-23T22:58:00.775Z,92.90
2017-11-23T23:00:29.576Z,93.00
2017-11-23T23:02:57.951Z,93.00
2017-11-23T23:05:26.319Z,93.00
2017-11-23T23:07:54.890Z,93.00
2017-11-23T23:10:23.265Z,92.90
2017-11-23T23:12:51.637Z,93.00
2017-11-23T23:15:20.249Z,93.00
2017-11-23T23:17:48.612Z,93.00
2017-11-23T23:20:16.978Z,93.10
2017-11-23T23:22:46.423Z,93.30
2017-11-23T23:25:14.785Z,93.30
2017-11-23T23:27:43.143Z,93.40
2017-11-23T23:30:11.555Z,93.30
2017-11-23T23:32:39.910Z,93.50
2017-11-23T23:35:08.267Z,93.50
2017-11-23T23:37:37.701Z,93.60
2017-11-23T23:40:06.071Z,93.50
2017-11-23T23:42:34.447Z,93.50
2017-11-23T23:45:02.857Z,93.30
2017-11-23T23:47:31.219Z,93.40
2017-11-23T23:49:59.578Z,93.40
2017-11-23T23:52:28.402Z,93.30
2017-11-23T23:54:56.764Z,93.30
2017-11-23T23:57:25.132Z,93.20
2017-11-23T23:59:53.611Z,93.10
